Time;durP1;ratioP1;P1;durP2;ratioP2;P2;SDS_P1;SDS_P2;PMS_P1;PMS_P2;Temp;Humidity;BMP_temperature;BMP_pressure;BME280_temperature;BME280_humidity;BME280_pressure;Samples;Min_cycle;Max_cycle;Signal;HPM_P1;HPM_P2
2024/02/01 00:00:34;;;;;;;;;;;;;;;-155.54;100.00;57697.75;4987762;28;19928;-74
2024/02/01 00:02:59;;;;;;;;;;;;;;;-155.54;100.00;57697.75;5000634;28;20538;-74
2024/02/01 00:05:24;;;;;;;;;;;;;;;-155.54;100.00;57697.75;4999756;28;19926;-75
2024/02/01 00:07:49;;;;;;;;;;;;;;;-155.54;100.00;57697.75;5000606;28;19928;-76
2024/02/01 00:10:15;;;;;;;;;;;;;;;-155.54;100.00;57697.75;4980732;28;19934;-75
2024/02/01 00:12:40;;;;;;;;;;;;;;;-155.54;100.00;57697.75;5001047;28;19928;-76
2024/02/01 00:15:06;;;;;;;;;;;;;;;-155.54;100.00;57697.75;4981231;28;19933;-75
2024/02/01 00:17:31;;;;;;;;;;;;;;;-155.54;100.00;57697.75;4999874;28;19929;-75
2024/02/01 00:19:56;;;;;;;;;;;;;;;-155.54;100.00;57697.75;4993192;28;19925;-74
2024/02/01 00:22:22;;;;;;;;;;;;;;;-155.54;100.00;57697.75;5000546;28;19952;-75
2024/02/01 00:24:49;;;;;;;;;;;;;;;-155.54;100.00;57697.75;4982589;28;20015;-76
2024/02/01 00:27:15;;;;;;;;;;;;;;;-155.54;100.00;57697.75;4994809;28;20403;-75
2024/02/01 00:29:40;;;;;;;;;;;;;;;-155.54;100.00;57697.75;4994067;28;20011;-74
2024/02/01 00:32:05;;;;;;;;;;;;;;;-155.54;100.00;57697.75;4995665;28;19930;-76
2024/02/01 00:34:32;;;;;;;;;;;;;;;-155.54;100.00;57697.75;4981171;28;19980;-77
2024/02/01 00:36:58;;;;;;;;;;;;;;;-155.54;100.00;57697.75;4979386;28;19933;-75
2024/02/01 00:39:23;;;;;;;;;;;;;;;-155.54;100.00;57697.75;4972803;28;19922;-77
2024/02/01 00:41:48;;;;;;;;;;;;;;;-155.54;100.00;57697.75;4994339;28;20556;-76
2024/02/01 00:44:13;;;;;;;;;;;;;;;-155.54;100.00;57697.75;4972515;28;19984;-76
2024/02/01 00:46:39;;;;;;;;;;;;;;;-155.54;100.00;57697.75;4985623;28;19977;-76
2024/02/01 00:49:04;;;;;;;;;;;;;;;-155.54;100.00;57697.75;4998521;28;20013;-76
2024/02/01 00:51:29;;;;;;;;;;;;;;;-155.54;100.00;57697.75;4986305;28;20579;-76
2024/02/01 00:53:54;;;;;;;;;;;;;;;-155.54;100.00;57697.75;4970388;28;19977;-76
2024/02/01 00:56:20;;;;;;;;;;;;;;;-155.54;100.00;57697.75;4990273;28;19930;-76
2024/02/01 00:58:45;;;;;;;;;;;;;;;-155.54;100.00;57697.75;4984834;28;19932;-76
2024/02/01 01:01:10;;;;;;;;;;;;;;;-155.54;100.00;57697.75;4990001;28;20212;-76
2024/02/01 01:03:36;;;;;;;;;;;;;;;-155.54;100.00;57697.75;4989897;28;19933;-76
2024/02/01 01:06:02;;;;;;;;;;;;;;;-155.54;100.00;57697.75;4989766;28;19926;-77
2024/02/01 01:08:27;;;;;;;;;;;;;;;-155.54;100.00;57697.75;4979473;28;19959;-76
2024/02/01 01:10:53;;;;;;;;;;;;;;;-155.54;100.00;57697.75;4992909;28;20339;-76
2024/02/01 01:13:18;;;;;;;;;;;;;;;-155.54;100.00;57697.75;4966409;28;19932;-76
2024/02/01 01:15:43;;;;;;;;;;;;;;;-155.54;100.00;57697.75;4994917;28;19925;-76
2024/02/01 01:18:08;;;;;;;;;;;;;;;-155.54;100.00;57697.75;4979866;28;19941;-77
2024/02/01 01:20:34;;;;;;;;;;;;;;;-155.54;100.00;57697.75;4997850;28;20019;-76
2024/02/01 01:22:59;;;;;;;;;;;;;;;-155.54;100.00;57697.75;4990086;28;19956;-77
2024/02/01 01:25:24;;;;;;;;;;;;;;;-155.54;100.00;57697.75;4992814;28;20398;-77
2024/02/01 01:27:49;;;;;;;;;;;;;;;-155.54;100.00;57697.75;4982519;28;20015;-76
2024/02/01 01:30:15;;;;;;;;;;;;;;;-155.54;100.00;57697.75;4975978;28;19967;-77
2024/02/01 01:32:40;;;;;;;;;;;;;;;-155.54;100.00;57697.75;4998532;28;19928;-76
2024/02/01 01:35:05;;;;;;;;;;;;;;;-155.54;100.00;57697.75;4998119;28;19930;-76
2024/02/01 01:37:32;;;;;;;;;;;;;;;-155.54;100.00;57697.75;4993853;28;20573;-77
2024/02/01 01:39:58;;;;;;;;;;;;;;;-155.54;100.00;57697.75;4997536;28;20021;-76
2024/02/01 01:42:23;;;;;;;;;;;;;;;-155.54;100.00;57697.75;4968170;28;20068;-76
2024/02/01 01:44:48;;;;;;;;;;;;;;;-155.54;100.00;57697.75;4980196;28;19921;-76
2024/02/01 01:47:13;;;;;;;;;;;;;;;-155.54;100.00;57697.75;4998655;28;19917;-76
2024/02/01 01:49:39;;;;;;;;;;;;;;;-155.54;100.00;57697.75;4974834;28;19921;-76
2024/02/01 01:52:04;;;;;;;;;;;;;;;-155.54;100.00;57697.75;4982779;28;19914;-76
2024/02/01 01:54:30;;;;;;;;;;;;;;;-155.54;100.00;57697.75;4978038;28;19930;-77
2024/02/01 01:56:56;;;;;;;;;;;;;;;-155.54;100.00;57697.75;4980087;28;20513;-77
2024/02/01 01:59:21;;;;;;;;;;;;;;;-155.54;100.00;57697.75;4965622;28;19979;-77
2024/02/01 02:01:47;;;;;;;;;;;;;;;-155.54;100.00;57697.75;4972111;28;20020;-77
2024/02/01 02:04:15;;;;;;;;;;;;;;;-155.54;100.00;57697.75;4966592;28;20290;-78
2024/02/01 02:06:41;;;;;;;;;;;;;;;-155.54;100.00;57697.75;4989253;28;19926;-78
2024/02/01 02:09:12;;;;;;;;;;;;;;;-155.54;100.00;57697.75;4973210;28;19921;-77
2024/02/01 02:11:38;;;;;;;;;;;;;;;-155.54;100.00;57697.75;4968649;28;19952;-77
2024/02/01 02:14:08;;;;;;;;;;;;;;;-155.54;100.00;57697.75;4986767;28;19925;-77
2024/02/01 02:16:36;;;;;;;;;;;;;;;-155.54;100.00;57697.75;4974359;28;20569;-78
2024/02/01 02:19:09;;;;;;;;;;;;;;;-155.54;100.00;57697.75;4985140;28;20034;-77
2024/02/01 02:21:34;;;;;;;;;;;;;;;-155.54;100.00;57697.75;4968226;28;19988;-78
2024/02/01 02:23:59;;;;;;;;;;;;;;;-155.54;100.00;57697.75;4977027;28;20012;-77
2024/02/01 02:26:24;;;;;;;;;;;;;;;-155.54;100.00;57697.75;4979100;28;19925;-78
2024/02/01 02:28:50;;;;;;;;;;;;;;;-155.54;100.00;57697.75;5002072;28;19956;-77
2024/02/01 02:31:15;;;;;;;;;;;;;;;-155.54;100.00;57697.75;4982634;28;19952;-78
2024/02/01 02:33:40;;;;;;;;;;;;;;;-155.54;100.00;57697.75;4983308;28;20013;-77
2024/02/01 02:36:09;;;;;;;;;;;;;;;-155.54;100.00;57697.75;4998583;28;19991;-77
2024/02/01 02:38:34;;;;;;;;;;;;;;;-155.54;100.00;57697.75;4983858;28;19928;-77
2024/02/01 02:41:00;;;;;;;;;;;;;;;-155.54;100.00;57697.75;4965711;28;19952;-77
2024/02/01 02:43:25;;;;;;;;;;;;;;;-155.54;100.00;57697.75;4979745;28;19926;-78
2024/02/01 02:45:50;;;;;;;;;;;;;;;-155.54;100.00;57697.75;4964420;28;20337;-77
2024/02/01 02:48:16;;;;;;;;;;;;;;;-155.54;100.00;57697.75;4983108;28;19973;-77
2024/02/01 02:50:42;;;;;;;;;;;;;;;-155.54;100.00;57697.75;4952266;28;19980;-77
2024/02/01 02:53:07;;;;;;;;;;;;;;;-155.54;100.00;57697.75;5001592;28;19957;-78
2024/02/01 02:55:33;;;;;;;;;;;;;;;-155.54;100.00;57697.75;4999746;28;19960;-77
2024/02/01 02:57:58;;;;;;;;;;;;;;;-155.54;100.00;57697.75;4984000;28;19929;-77
2024/02/01 03:00:23;;;;;;;;;;;;;;;-155.54;100.00;57697.75;4984966;28;20394;-77
2024/02/01 03:02:49;;;;;;;;;;;;;;;-155.54;100.00;57697.75;4983876;28;19922;-77
2024/02/01 03:05:15;;;;;;;;;;;;;;;-155.54;100.00;57697.75;4986860;28;20016;-77
2024/02/01 03:07:40;;;;;;;;;;;;;;;-155.54;100.00;57697.75;4980519;28;20302;-77
2024/02/01 03:10:07;;;;;;;;;;;;;;;-155.54;100.00;57697.75;4985035;28;19925;-77
2024/02/01 03:12:32;;;;;;;;;;;;;;;-155.54;100.00;57697.75;5005331;28;19961;-77
2024/02/01 03:14:57;;;;;;;;;;;;;;;-155.54;100.00;57697.75;4991663;28;20427;-77
2024/02/01 03:17:23;;;;;;;;;;;;;;;-155.54;100.00;57697.75;4990582;28;19925;-77
2024/02/01 03:19:50;;;;;;;;;;;;;;;-155.54;100.00;57697.75;5008055;28;19922;-77
2024/02/01 03:22:19;;;;;;;;;;;;;;;-155.54;100.00;57697.75;4972692;28;19917;-77
2024/02/01 03:24:45;;;;;;;;;;;;;;;-155.54;100.00;57697.75;4975253;28;20475;-77
2024/02/01 03:27:11;;;;;;;;;;;;;;;-155.54;100.00;57697.75;4975060;28;20274;-77
2024/02/01 03:29:37;;;;;;;;;;;;;;;-155.54;100.00;57697.75;4970695;28;19922;-77
2024/02/01 03:32:05;;;;;;;;;;;;;;;-155.54;100.00;57697.75;4985235;28;19949;-78
2024/02/01 03:34:31;;;;;;;;;;;;;;;-155.54;100.00;57697.75;4972874;28;19933;-78
2024/02/01 03:36:57;;;;;;;;;;;;;;;-155.54;100.00;57697.75;4986829;28;19925;-77
2024/02/01 03:39:22;;;;;;;;;;;;;;;-155.54;100.00;57697.75;4978614;28;20495;-77
2024/02/01 03:41:51;;;;;;;;;;;;;;;-155.54;100.00;57697.75;4984424;28;19963;-78
2024/02/01 03:44:17;;;;;;;;;;;;;;;-155.54;100.00;57697.75;4989499;28;20048;-77
2024/02/01 03:46:42;;;;;;;;;;;;;;;-155.54;100.00;57697.75;4975070;28;20391;-77
2024/02/01 03:49:08;;;;;;;;;;;;;;;-155.54;100.00;57697.75;4990408;28;20362;-77
2024/02/01 03:51:35;;;;;;;;;;;;;;;-155.54;100.00;57697.75;4969137;28;19917;-78
2024/02/01 03:54:05;;;;;;;;;;;;;;;-155.54;100.00;57697.75;4968895;28;20178;-77
2024/02/01 03:56:31;;;;;;;;;;;;;;;-155.54;100.00;57697.75;5008219;28;20279;-77
2024/02/01 03:59:00;;;;;;;;;;;;;;;-155.54;100.00;57697.75;4988819;28;19922;-77
2024/02/01 04:01:26;;;;;;;;;;;;;;;-155.54;100.00;57697.75;5004270;28;19929;-77
2024/02/01 04:03:51;;;;;;;;;;;;;;;-155.54;100.00;57697.75;4980290;28;19921;-76
2024/02/01 04:06:17;;;;;;;;;;;;;;;-155.54;100.00;57697.75;4999688;28;19925;-76
2024/02/01 04:08:42;;;;;;;;;;;;;;;-155.54;100.00;57697.75;4982383;28;19975;-76
2024/02/01 04:11:07;;;;;;;;;;;;;;;-155.54;100.00;57697.75;4994612;28;19926;-76
2024/02/01 04:13:33;;;;;;;;;;;;;;;-155.54;100.00;57697.75;4985531;28;19932;-76
2024/02/01 04:15:58;;;;;;;;;;;;;;;-155.54;100.00;57697.75;4977569;28;19976;-76
2024/02/01 04:18:23;;;;;;;;;;;;;;;-155.54;100.00;57697.75;4999386;28;20487;-77
2024/02/01 04:20:48;;;;;;;;;;;;;;;-155.54;100.00;57697.75;4963313;28;19930;-77
2024/02/01 04:23:14;;;;;;;;;;;;;;;-155.54;100.00;57697.75;4981101;28;20022;-77
2024/02/01 04:25:40;;;;;;;;;;;;;;;-155.54;100.00;57697.75;4974869;28;19918;-77
2024/02/01 04:28:08;;;;;;;;;;;;;;;-155.54;100.00;57697.75;4989511;28;19934;-77
2024/02/01 04:30:34;;;;;;;;;;;;;;;-155.54;100.00;57697.75;4997445;28;19932;-77
2024/02/01 04:32:59;;;;;;;;;;;;;;;-155.54;100.00;57697.75;4981398;28;20032;-77
2024/02/01 04:35:25;;;;;;;;;;;;;;;-155.54;100.00;57697.75;4975323;28;19985;-77
2024/02/01 04:37:52;;;;;;;;;;;;;;;-155.54;100.00;57697.75;4993807;28;19960;-77
2024/02/01 04:40:18;;;;;;;;;;;;;;;-155.54;100.00;57697.75;5000098;28;19922;-77
2024/02/01 04:42:47;;;;;;;;;;;;;;;-155.54;100.00;57697.75;4994025;28;20468;-77
2024/02/01 04:45:12;;;;;;;;;;;;;;;-155.54;100.00;57697.75;4998793;28;19921;-77
2024/02/01 04:47:38;;;;;;;;;;;;;;;-155.54;100.00;57697.75;4991320;28;19922;-77
2024/02/01 04:50:04;;;;;;;;;;;;;;;-155.54;100.00;57697.75;4999083;28;20032;-77
2024/02/01 04:52:29;;;;;;;;;;;;;;;-155.54;100.00;57697.75;4981649;28;19921;-77
2024/02/01 04:54:54;;;;;;;;;;;;;;;-155.54;100.00;57697.75;4973085;28;19925;-77
2024/02/01 04:57:20;;;;;;;;;;;;;;;-155.54;100.00;57697.75;4998657;28;19976;-77
2024/02/01 04:59:46;;;;;;;;;;;;;;;-155.54;100.00;57697.75;4962380;28;19980;-77
2024/02/01 05:02:11;;;;;;;;;;;;;;;-155.54;100.00;57697.75;4992542;28;19922;-77
2024/02/01 05:04:36;;;;;;;;;;;;;;;-155.54;100.00;57697.75;4999305;28;19929;-77
2024/02/01 05:07:05;;;;;;;;;;;;;;;-155.54;100.00;57697.75;4960888;28;19986;-77
2024/02/01 05:09:32;;;;;;;;;;;;;;;-155.54;100.00;57697.75;4998264;28;19932;-77
2024/02/01 05:11:57;;;;;;;;;;;;;;;-155.54;100.00;57697.75;4974785;28;19921;-77
2024/02/01 05:14:23;;;;;;;;;;;;;;;-155.54;100.00;57697.75;4976684;28;19965;-78
2024/02/01 05:16:50;;;;;;;;;;;;;;;-155.54;100.00;57697.75;4964728;28;19960;-78
2024/02/01 05:19:15;;;;;;;;;;;;;;;-155.54;100.00;57697.75;4993675;28;20313;-81
2024/02/01 05:21:40;;;;;;;;;;;;;;;-155.54;100.00;57697.75;4964706;28;20020;-79
2024/02/01 05:24:08;;;;;;;;;;;;;;;-155.54;100.00;57697.75;4974387;28;19930;-77
2024/02/01 05:26:36;;;;;;;;;;;;;;;-155.54;100.00;57697.75;4998638;28;19949;-80
2024/02/01 05:29:02;;;;;;;;;;;;;;;-155.54;100.00;57697.75;4998429;28;20661;-77
2024/02/01 05:31:27;;;;;;;;;;;;;;;-155.54;100.00;57697.75;4964766;28;19930;-78
2024/02/01 05:33:53;;;;;;;;;;;;;;;-155.54;100.00;57697.75;4998108;28;20042;-77
2024/02/01 05:36:18;;;;;;;;;;;;;;;-155.54;100.00;57697.75;4996786;28;20056;-79
2024/02/01 05:38:43;;;;;;;;;;;;;;;-155.54;100.00;57697.75;4994592;28;19929;-77
2024/02/01 05:41:17;;;;;;;;;;;;;;;-155.54;100.00;57697.75;4998437;28;20285;-80
2024/02/01 05:43:43;;;;;;;;;;;;;;;-155.54;100.00;57697.75;4993880;28;20002;-78
2024/02/01 05:46:14;;;;;;;;;;;;;;;-155.54;100.00;57697.75;4998123;28;19972;-80
2024/02/01 05:48:45;;;;;;;;;;;;;;;-155.54;100.00;57697.75;4967976;28;19922;-77
2024/02/01 05:51:10;;;;;;;;;;;;;;;-155.54;100.00;57697.75;4980777;28;19925;-77
2024/02/01 05:53:36;;;;;;;;;;;;;;;-155.54;100.00;57697.75;4997838;28;19933;-79
2024/02/01 05:56:02;;;;;;;;;;;;;;;-155.54;100.00;57697.75;4998813;28;20024;-79
2024/02/01 05:58:27;;;;;;;;;;;;;;;-155.54;100.00;57697.75;4998262;28;20821;-80
2024/02/01 06:00:57;;;;;;;;;;;;;;;-155.54;100.00;57697.75;4980495;28;19921;-76
2024/02/01 06:03:22;;;;;;;;;;;;;;;-155.54;100.00;57697.75;4966573;28;19925;-81
2024/02/01 06:05:49;;;;;;;;;;;;;;;-155.54;100.00;57697.75;4997337;28;19933;-76
2024/02/01 06:08:14;;;;;;;;;;;;;;;-155.54;100.00;57697.75;4998279;28;20342;-77
2024/02/01 06:10:39;;;;;;;;;;;;;;;-155.54;100.00;57697.75;4979692;28;19933;-77
2024/02/01 06:13:06;;;;;;;;;;;;;;;-155.54;100.00;57697.75;4997458;28;19937;-77
2024/02/01 06:15:33;;;;;;;;;;;;;;;-155.54;100.00;57697.75;4998337;28;20101;-77
2024/02/01 06:17:58;;;;;;;;;;;;;;;-155.54;100.00;57697.75;4996093;28;20456;-80
2024/02/01 06:20:23;;;;;;;;;;;;;;;-155.54;100.00;57697.75;4980016;28;19969;-77
2024/02/01 06:22:50;;;;;;;;;;;;;;;-155.54;100.00;57697.75;4997912;28;19925;-77
2024/02/01 06:25:18;;;;;;;;;;;;;;;-155.54;100.00;57697.75;4965558;28;19918;-78
2024/02/01 06:27:43;;;;;;;;;;;;;;;-155.54;100.00;57697.75;5002127;28;19976;-77
2024/02/01 06:30:10;;;;;;;;;;;;;;;-155.54;100.00;57697.75;5004983;28;20207;-77
2024/02/01 06:32:35;;;;;;;;;;;;;;;-155.54;100.00;57697.75;5005377;28;20356;-77
2024/02/01 06:35:06;;;;;;;;;;;;;;;-155.54;100.00;57697.75;5007890;28;19925;-77
2024/02/01 06:37:32;;;;;;;;;;;;;;;-155.54;100.00;57697.75;5002157;28;19923;-77
2024/02/01 06:40:37;;;;;;;;;;;;;;;-155.54;100.00;57697.75;5005086;28;19937;-78
2024/02/01 06:43:27;;;;;;;;;;;;;;;-155.54;100.00;57697.75;4996706;28;19929;-78
2024/02/01 06:46:18;;;;;;;;;;;;;;;-155.54;100.00;57697.75;4992161;28;20563;-78
2024/02/01 06:48:46;;;;;;;;;;;;;;;-155.54;100.00;57697.75;5007531;28;20510;-78
2024/02/01 06:51:21;;;;;;;;;;;;;;;-155.54;100.00;57697.75;5010866;28;19937;-78
2024/02/01 06:53:56;;;;;;;;;;;;;;;-155.54;100.00;57697.75;5008479;28;19925;-77
2024/02/01 06:59:29;;;;;;;;;;;;;;;-155.54;100.00;57697.75;5008494;28;19975;-78
2024/02/01 07:02:11;;;;;;;;;;;;;;;-155.54;100.00;57697.75;5008291;28;20063;-78
2024/02/01 07:05:03;;;;;;;;;;;;;;;-155.54;100.00;57697.75;4994298;28;19929;-78
2024/02/01 07:07:29;;;;;;;;;;;;;;;-155.54;100.00;57697.75;5006096;28;20301;-78
2024/02/01 07:09:58;;;;;;;;;;;;;;;-155.54;100.00;57697.75;5008397;28;20492;-77
2024/02/01 07:12:40;;;;;;;;;;;;;;;-155.54;100.00;57697.75;4990937;28;19925;-78
2024/02/01 07:17:58;;;;;;;;;;;;;;;-155.54;100.00;57697.75;4985770;28;20670;-78
2024/02/01 07:20:35;;;;;;;;;;;;;;;-155.54;100.00;57697.75;4991630;28;19925;-77
2024/02/01 07:23:03;;;;;;;;;;;;;;;-155.54;100.00;57697.75;5005517;28;20112;-78
2024/02/01 07:25:36;;;;;;;;;;;;;;;-155.54;100.00;57697.75;4983278;28;20284;-71
2024/02/01 07:58:08;;;;;;;;;;;;;;;-155.54;100.00;57697.75;4996358;28;19931;-70
2024/02/01 08:00:33;;;;;;;;;;;;;;;-155.54;100.00;57697.75;4994834;28;20001;-72
2024/02/01 08:03:11;;;;;;;;;;;;;;;-155.54;100.00;57697.75;4996035;28;19934;-71
2024/02/01 08:08:21;;;;;;;;;;;;;;;-155.54;100.00;57697.75;4995009;28;19932;-71
2024/02/01 08:10:47;;;;;;;;;;;;;;;-155.54;100.00;57697.75;4978553;28;20375;-72
2024/02/01 08:13:12;;;;;;;;;;;;;;;-155.54;100.00;57697.75;4996309;28;19983;-74
2024/02/01 08:15:44;;;;;;;;;;;;;;;-155.54;100.00;57697.75;4993317;28;20121;-73
2024/02/01 08:18:09;;;;;;;;;;;;;;;-155.54;100.00;57697.75;4985987;28;20619;-70
2024/02/01 08:20:35;;;;;;;;;;;;;;;-155.54;100.00;57697.75;4989823;28;19929;-72
2024/02/01 08:23:01;;;;;;;;;;;;;;;-155.54;100.00;57697.75;4989627;28;20396;-71
2024/02/01 08:25:26;;;;;;;;;;;;;;;-155.54;100.00;57697.75;4999402;28;19922;-72
2024/02/01 08:27:54;;;;;;;;;;;;;;;-155.54;100.00;57697.75;4992574;28;20034;-71
2024/02/01 08:30:20;;;;;;;;;;;;;;;-155.54;100.00;57697.75;4994278;28;19975;-71
2024/02/01 08:32:46;;;;;;;;;;;;;;;-155.54;100.00;57697.75;4998698;28;20639;-71
2024/02/01 08:35:12;;;;;;;;;;;;;;;-155.54;100.00;57697.75;4998158;28;19976;-71
2024/02/01 08:37:38;;;;;;;;;;;;;;;-155.54;100.00;57697.75;4993281;28;19977;-70
2024/02/01 08:40:04;;;;;;;;;;;;;;;-155.54;100.00;57697.75;4974695;28;20402;-71
2024/02/01 08:42:29;;;;;;;;;;;;;;;-155.54;100.00;57697.75;4991853;28;19926;-71
2024/02/01 08:44:55;;;;;;;;;;;;;;;-155.54;100.00;57697.75;4987968;28;20019;-69
2024/02/01 08:47:23;;;;;;;;;;;;;;;-155.54;100.00;57697.75;4993062;28;19925;-70
2024/02/01 08:49:49;;;;;;;;;;;;;;;-155.54;100.00;57697.75;4989422;28;20270;-70
2024/02/01 08:52:15;;;;;;;;;;;;;;;-155.54;100.00;57697.75;4989662;28;19930;-70
2024/02/01 08:54:40;;;;;;;;;;;;;;;-155.54;100.00;57697.75;4996074;28;19937;-70
2024/02/01 08:57:13;;;;;;;;;;;;;;;-155.54;100.00;57697.75;4992558;28;19926;-69
2024/02/01 08:59:39;;;;;;;;;;;;;;;-155.54;100.00;57697.75;4989356;28;19925;-70
2024/02/01 09:02:13;;;;;;;;;;;;;;;-155.54;100.00;57697.75;4986084;28;19926;-69
2024/02/01 09:04:38;;;;;;;;;;;;;;;-155.54;100.00;57697.75;4990448;28;19929;-69
2024/02/01 09:07:03;;;;;;;;;;;;;;;-155.54;100.00;57697.75;4992491;28;19929;-70
2024/02/01 09:09:29;;;;;;;;;;;;;;;-155.54;100.00;57697.75;4990574;28;19957;-70
2024/02/01 09:11:54;;;;;;;;;;;;;;;-155.54;100.00;57697.75;4988466;28;19925;-70
2024/02/01 09:14:19;;;;;;;;;;;;;;;-155.54;100.00;57697.75;4995260;28;20870;-70
2024/02/01 09:16:45;;;;;;;;;;;;;;;-155.54;100.00;57697.75;4989607;28;19932;-70
2024/02/01 09:19:14;;;;;;;;;;;;;;;-155.54;100.00;57697.75;4990908;28;19929;-70
2024/02/01 09:21:40;;;;;;;;;;;;;;;-155.54;100.00;57697.75;4989135;28;19926;-70
2024/02/01 09:24:05;;;;;;;;;;;;;;;-155.54;100.00;57697.75;4985022;28;20268;-70
2024/02/01 09:26:30;;;;;;;;;;;;;;;-155.54;100.00;57697.75;4982943;28;19926;-70
2024/02/01 09:28:56;;;;;;;;;;;;;;;-155.54;100.00;57697.75;4984729;28;20120;-70
2024/02/01 09:31:23;;;;;;;;;;;;;;;-155.54;100.00;57697.75;4986316;28;19925;-70
2024/02/01 09:33:50;;;;;;;;;;;;;;;-155.54;100.00;57697.75;4985383;28;20568;-69
2024/02/01 09:36:15;;;;;;;;;;;;;;;-155.54;100.00;57697.75;4988947;28;19976;-70
2024/02/01 09:38:41;;;;;;;;;;;;;;;-155.54;100.00;57697.75;4989070;28;19929;-70
2024/02/01 09:41:15;;;;;;;;;;;;;;;-155.54;100.00;57697.75;4986718;28;20532;-70
2024/02/01 09:43:40;;;;;;;;;;;;;;;-155.54;100.00;57697.75;4971153;28;19925;-70
2024/02/01 09:46:08;;;;;;;;;;;;;;;-155.54;100.00;57697.75;4991053;28;19925;-70
2024/02/01 09:48:33;;;;;;;;;;;;;;;-155.54;100.00;57697.75;4991598;28;20011;-70
2024/02/01 09:50:58;;;;;;;;;;;;;;;-155.54;100.00;57697.75;4985799;28;20308;-70
2024/02/01 09:53:24;;;;;;;;;;;;;;;-155.54;100.00;57697.75;4991148;28;19930;-70
2024/02/01 09:55:50;;;;;;;;;;;;;;;-155.54;100.00;57697.75;4992383;28;19928;-70
2024/02/01 09:58:18;;;;;;;;;;;;;;;-155.54;100.00;57697.75;4993431;28;19932;-70
2024/02/01 10:00:44;;;;;;;;;;;;;;;-155.54;100.00;57697.75;4986859;28;19923;-70
2024/02/01 10:03:11;;;;;;;;;;;;;;;-155.54;100.00;57697.75;4983739;28;19926;-69
2024/02/01 10:05:37;;;;;;;;;;;;;;;-155.54;100.00;57697.75;4991841;28;19930;-69
2024/02/01 10:08:10;;;;;;;;;;;;;;;-155.54;100.00;57697.75;4991408;28;20362;-69
2024/02/01 10:10:38;;;;;;;;;;;;;;;-155.54;100.00;57697.75;4994731;28;20005;-69
2024/02/01 10:13:06;;;;;;;;;;;;;;;-155.54;100.00;57697.75;4994407;28;19938;-70
2024/02/01 10:15:32;;;;;;;;;;;;;;;-155.54;100.00;57697.75;4990827;28;20318;-69
2024/02/01 10:17:58;;;;;;;;;;;;;;;-155.54;100.00;57697.75;4991604;28;19940;-69
2024/02/01 10:20:39;;;;;;;;;;;;;;;-155.54;100.00;57697.75;4990991;28;19933;-69
2024/02/01 10:23:09;;;;;;;;;;;;;;;-155.54;100.00;57697.75;4984396;28;20050;-69
2024/02/01 10:25:38;;;;;;;;;;;;;;;-155.54;100.00;57697.75;4979473;28;20133;-70
2024/02/01 10:28:04;;;;;;;;;;;;;;;-155.54;100.00;57697.75;4989635;28;19956;-69
2024/02/01 10:30:33;;;;;;;;;;;;;;;-155.54;100.00;57697.75;4987264;28;19968;-69
2024/02/01 10:33:01;;;;;;;;;;;;;;;-155.54;100.00;57697.75;4981178;28;19930;-69
2024/02/01 10:35:26;;;;;;;;;;;;;;;-155.54;100.00;57697.75;4971391;28;20320;-69
2024/02/01 10:37:52;;;;;;;;;;;;;;;-155.54;100.00;57697.75;4961501;28;19967;-69
2024/02/01 10:40:17;;;;;;;;;;;;;;;-155.54;100.00;57697.75;4971676;28;20711;-69
2024/02/01 10:42:45;;;;;;;;;;;;;;;-155.54;100.00;57697.75;4970485;28;19932;-69
2024/02/01 10:45:11;;;;;;;;;;;;;;;-155.54;100.00;57697.75;4968278;28;19929;-69
2024/02/01 10:47:41;;;;;;;;;;;;;;;-155.54;100.00;57697.75;4987687;28;19922;-69
2024/02/01 10:50:07;;;;;;;;;;;;;;;-155.54;100.00;57697.75;4968545;28;20015;-69
2024/02/01 10:52:33;;;;;;;;;;;;;;;-155.54;100.00;57697.75;4989205;28;20434;-72
2024/02/01 10:54:58;;;;;;;;;;;;;;;-155.54;100.00;57697.75;4969012;28;19925;-77
2024/02/01 10:57:23;;;;;;;;;;;;;;;-155.54;100.00;57697.75;4975176;28;20107;-77
2024/02/01 10:59:49;;;;;;;;;;;;;;;-155.54;100.00;57697.75;4972591;28;19948;-77
2024/02/01 11:02:15;;;;;;;;;;;;;;;-155.54;100.00;57697.75;4966767;28;20377;-77
2024/02/01 11:04:42;;;;;;;;;;;;;;;-155.54;100.00;57697.75;4977967;28;19952;-78
2024/02/01 11:07:08;;;;;;;;;;;;;;;-155.54;100.00;57697.75;4980365;28;19930;-77
2024/02/01 11:09:33;;;;;;;;;;;;;;;-155.54;100.00;57697.75;4992818;28;19933;-77
2024/02/01 11:11:58;;;;;;;;;;;;;;;-155.54;100.00;57697.75;4979505;28;19965;-77
2024/02/01 11:14:24;;;;;;;;;;;;;;;-155.54;100.00;57697.75;4974895;28;19957;-77
2024/02/01 11:16:53;;;;;;;;;;;;;;;-155.54;100.00;57697.75;4996902;28;19921;-77
2024/02/01 11:19:19;;;;;;;;;;;;;;;-155.54;100.00;57697.75;4978918;28;20631;-77
2024/02/01 11:21:50;;;;;;;;;;;;;;;-155.54;100.00;57697.75;4997082;28;19953;-77
2024/02/01 11:24:19;;;;;;;;;;;;;;;-155.54;100.00;57697.75;4995268;28;19927;-77
2024/02/01 11:26:45;;;;;;;;;;;;;;;-155.54;100.00;57697.75;4978926;28;19925;-77
2024/02/01 11:29:11;;;;;;;;;;;;;;;-155.54;100.00;57697.75;4962085;28;20012;-77
2024/02/01 11:31:37;;;;;;;;;;;;;;;-155.54;100.00;57697.75;4976595;28;19983;-77
2024/02/01 11:34:05;;;;;;;;;;;;;;;-155.54;100.00;57697.75;4982824;28;19960;-77
2024/02/01 11:36:38;;;;;;;;;;;;;;;-155.54;100.00;57697.75;4980003;28;20815;-77
2024/02/01 11:39:04;;;;;;;;;;;;;;;-155.54;100.00;57697.75;4978218;28;20036;-77
2024/02/01 11:41:30;;;;;;;;;;;;;;;-155.54;100.00;57697.75;4991034;28;20003;-77
2024/02/01 11:43:57;;;;;;;;;;;;;;;-155.54;100.00;57697.75;4995882;28;19925;-78
2024/02/01 11:46:23;;;;;;;;;;;;;;;-155.54;100.00;57697.75;4985943;28;19998;-77
2024/02/01 11:48:48;;;;;;;;;;;;;;;-155.54;100.00;57697.75;4982492;28;19957;-77
2024/02/01 11:51:14;;;;;;;;;;;;;;;-155.54;100.00;57697.75;4981425;28;19926;-77
2024/02/01 11:53:39;;;;;;;;;;;;;;;-155.54;100.00;57697.75;4990657;28;20581;-77
2024/02/01 11:56:05;;;;;;;;;;;;;;;-155.54;100.00;57697.75;4981258;28;20391;-77
2024/02/01 11:58:34;;;;;;;;;;;;;;;-155.54;100.00;57697.75;4982291;28;20706;-78
2024/02/01 12:01:00;;;;;;;;;;;;;;;-155.54;100.00;57697.75;4982137;28;19962;-78
2024/02/01 12:03:32;;;;;;;;;;;;;;;-155.54;100.00;57697.75;4974363;28;19921;-79
2024/02/01 12:05:59;;;;;;;;;;;;;;;-155.54;100.00;57697.75;4979230;28;19932;-77
2024/02/01 12:08:25;;;;;;;;;;;;;;;-155.54;100.00;57697.75;4981516;28;19948;-79
2024/02/01 12:10:50;;;;;;;;;;;;;;;-155.54;100.00;57697.75;4969316;28;19926;-77
2024/02/01 12:13:16;;;;;;;;;;;;;;;-155.54;100.00;57697.75;4999234;28;19940;-77
2024/02/01 12:15:45;;;;;;;;;;;;;;;-155.54;100.00;57697.75;4999031;28;20279;-80
2024/02/01 12:18:12;;;;;;;;;;;;;;;-155.54;100.00;57697.75;4999546;28;20417;-77
2024/02/01 12:20:41;;;;;;;;;;;;;;;-155.54;100.00;57697.75;4977635;28;20400;-79
2024/02/01 12:23:06;;;;;;;;;;;;;;;-155.54;100.00;57697.75;4970159;28;19922;-75
2024/02/01 12:25:32;;;;;;;;;;;;;;;-155.54;100.00;57697.75;4988679;28;19936;-74
2024/02/01 12:27:57;;;;;;;;;;;;;;;-155.54;100.00;57697.75;4991248;28;19930;-75
2024/02/01 12:30:26;;;;;;;;;;;;;;;-155.54;100.00;57697.75;4988814;28;19926;-73
2024/02/01 12:32:51;;;;;;;;;;;;;;;-155.54;100.00;57697.75;4997161;28;19925;-74
2024/02/01 12:35:18;;;;;;;;;;;;;;;-155.54;100.00;57697.75;4989562;28;19937;-73
2024/02/01 12:37:44;;;;;;;;;;;;;;;-155.54;100.00;57697.75;4995353;28;20332;-73
2024/02/01 12:40:11;;;;;;;;;;;;;;;-155.54;100.00;57697.75;4992107;28;19928;-74
2024/02/01 12:42:36;;;;;;;;;;;;;;;-155.54;100.00;57697.75;4983447;28;20032;-74
2024/02/01 12:45:02;;;;;;;;;;;;;;;-155.54;100.00;57697.75;4993880;28;20389;-73
2024/02/01 12:47:29;;;;;;;;;;;;;;;-155.54;100.00;57697.75;4994799;28;19918;-73
2024/02/01 12:49:56;;;;;;;;;;;;;;;-155.54;100.00;57697.75;4983289;28;19929;-75
2024/02/01 12:52:21;;;;;;;;;;;;;;;-155.54;100.00;57697.75;4995773;28;19932;-73
2024/02/01 12:54:46;;;;;;;;;;;;;;;-155.54;100.00;57697.75;4994439;28;20555;-74